Česky Dansk Deutsch English Español Suomi Français Magyar Italiano Nederlands norsk Polski Português svenska Türkçe

 

Het Weer

Kinloss (Groot Britanië)

22:50, 19 augustus 2016 (GMT)

NWNNE
WE
SWSSE
Home            
Kinloss Lossiemouth Tain Range Inverness / Dalcross Wick Aberdeen / Dyce Perth / Scone Dundee / Riverside Leuchars Kirkwall Airport Stornoway Edinburgh Airport Glasgow Airport Benbecula Tiree Prestwick Airport Islay Boulmer Campbeltown Machrihanish Sumburgh Cape Spadeadam Carlisle

Om een weerknop op uw website of weblog te plaatsen, copieer onderstaande code en plak die in uw pagina. In het eerste vakje staat HTML-code, in het tweede vakje UBB-code.


Add to Google

Details

Wind speed:3 bf, 7 kn, 3.6 m/s, 8.1 miles/h, 13.0 km/h
Wind direction:E, 080°
Visibility:Suurempi kuin 10000 m, 10 km, 32800 ft, 6.2 miles
Clouds:Muutamia pilviä at 1500 ft, 457 m
Täysin pilvinen at 5000 ft, 1524 m
Lämpötila:14°C, 57°F
Kastepisteen:13°C, 55°F
Ilmanpaine:999 hPa, 749.3 mmHg, 29.50 inHg, 0.986 atm
Suhteellinen kosteus:93.7 %
METAR:EGQK 192250Z AUTO 08007KT 9999 FEW015 OVC050 14/13 Q0999 RERA

Snelkoppelingen

Actuele weersinformatie van de hele wereld. Voeg locaties toe met het plus (+) symbool. Deze snelkoppelingen kunnen worden toegevoegd aan Google.

Lid van de Technetium groep

website free tracking
StatCounter NetStat W3C Validator

14-04-2021 10:06:32
astro.technetium.be money.technetium.be phote.technetium.be tafeltennistafel.technetium.be www.ligfiets.net